createdAt,value
2022-08-03T00:00:26.284Z,26.82
2022-08-03T00:02:53.078Z,26.88
2022-08-03T00:05:19.777Z,26.80
2022-08-03T00:07:46.254Z,26.79
2022-08-03T00:10:15.159Z,26.82
2022-08-03T00:12:41.769Z,26.79
2022-08-03T00:15:11.218Z,26.72
2022-08-03T00:17:52.295Z,26.84
2022-08-03T00:20:23.407Z,26.79
2022-08-03T00:22:50.625Z,26.72
2022-08-03T00:25:17.904Z,26.67
2022-08-03T00:27:44.419Z,26.69
2022-08-03T00:30:11.727Z,26.79
2022-08-03T00:32:41.387Z,26.60
2022-08-03T00:35:18.246Z,26.56
2022-08-03T00:37:59.338Z,26.60
2022-08-03T00:40:26.059Z,26.65
2022-08-03T00:43:00.617Z,26.67
2022-08-03T00:45:30.085Z,26.59
2022-08-03T00:47:57.298Z,26.49
2022-08-03T00:50:25.593Z,26.44
2022-08-03T00:52:54.140Z,26.41
2022-08-03T00:55:20.758Z,26.37
2022-08-03T00:57:48.191Z,26.38
2022-08-03T01:00:17.772Z,26.56
2022-08-03T01:02:44.561Z,26.52
2022-08-03T01:05:11.305Z,26.46
2022-08-03T01:07:40.551Z,26.43
2022-08-03T01:10:16.256Z,26.43
2022-08-03T01:12:46.140Z,26.33
2022-08-03T01:15:21.759Z,26.27
2022-08-03T01:18:09.846Z,26.23
2022-08-03T01:20:40.463Z,26.27
2022-08-03T01:23:28.926Z,26.17
2022-08-03T01:26:19.916Z,26.16
2022-08-03T01:29:15.754Z,26.09
2022-08-03T01:32:58.850Z,26.12
2022-08-03T01:34:45.499Z,26.11
2022-08-03T01:37:16.375Z,26.02
2022-08-03T01:39:45.424Z,26.13
2022-08-03T01:42:14.334Z,26.03
2022-08-03T01:44:43.139Z,25.99
2022-08-03T01:47:12.030Z,25.90
2022-08-03T01:49:45.251Z,26.10
2022-08-03T01:52:17.293Z,26.05
2022-08-03T01:54:46.693Z,25.96
2022-08-03T01:57:15.130Z,25.91
2022-08-03T01:59:43.103Z,25.90
2022-08-03T02:02:28.293Z,25.87
2022-08-03T02:05:01.776Z,25.92
2022-08-03T02:07:30.259Z,25.95
2022-08-03T02:09:58.502Z,26.02
2022-08-03T02:12:26.791Z,25.87
2022-08-03T02:14:56.487Z,25.75
2022-08-03T02:17:38.768Z,25.87
2022-08-03T02:20:08.558Z,25.90
2022-08-03T02:22:36.783Z,25.91
2022-08-03T02:25:03.697Z,25.89
2022-08-03T02:27:33.079Z,25.99
2022-08-03T02:30:08.626Z,25.99
2022-08-03T02:32:37.834Z,25.91
2022-08-03T02:35:09.547Z,25.95
2022-08-03T02:37:45.095Z,25.99
2022-08-03T02:40:19.081Z,25.93
2022-08-03T02:42:47.259Z,25.96
2022-08-03T02:45:16.723Z,26.04
2022-08-03T02:47:54.373Z,25.99
2022-08-03T02:50:24.146Z,25.87
2022-08-03T02:52:51.948Z,25.68
2022-08-03T02:55:21.748Z,25.82
2022-08-03T02:57:49.937Z,25.73
2022-08-03T03:00:19.500Z,25.73
2022-08-03T03:02:58.732Z,25.65
2022-08-03T03:05:56.042Z,25.65
2022-08-03T03:08:18.025Z,25.65
2022-08-03T03:10:48.205Z,25.92
2022-08-03T03:13:16.060Z,25.85
2022-08-03T03:15:44.115Z,25.71
2022-08-03T03:18:11.410Z,25.67
2022-08-03T03:20:40.871Z,25.62
2022-08-03T03:23:09.195Z,25.68
2022-08-03T03:25:36.219Z,25.65
2022-08-03T03:28:03.839Z,25.63
2022-08-03T03:30:33.558Z,25.64
2022-08-03T03:33:00.223Z,26.28
2022-08-03T03:35:27.913Z,26.21
2022-08-03T03:37:54.649Z,25.80
2022-08-03T03:40:22.456Z,25.62
2022-08-03T03:42:50.033Z,25.62
2022-08-03T03:45:17.042Z,25.52
2022-08-03T03:47:43.659Z,25.78
2022-08-03T03:50:10.983Z,25.58
2022-08-03T03:52:37.677Z,25.49
2022-08-03T03:55:04.507Z,25.48
2022-08-03T03:57:31.091Z,25.45
2022-08-03T03:59:57.804Z,25.43
2022-08-03T04:02:24.421Z,25.45
2022-08-03T04:05:09.854Z,25.43
2022-08-03T04:08:14.481Z,25.36
2022-08-03T04:10:58.806Z,25.42
2022-08-03T04:13:30.044Z,25.30
2022-08-03T04:15:58.487Z,25.32
2022-08-03T04:18:27.951Z,25.43
2022-08-03T04:20:59.313Z,25.43
2022-08-03T04:23:28.803Z,25.41
2022-08-03T04:25:57.964Z,24.98
2022-08-03T04:28:31.387Z,25.08
2022-08-03T04:31:01.029Z,25.02
2022-08-03T04:33:32.446Z,25.20
2022-08-03T04:36:02.933Z,24.83
2022-08-03T04:38:38.936Z,24.63
2022-08-03T04:41:06.578Z,24.42
2022-08-03T04:43:34.223Z,24.26
2022-08-03T04:46:02.566Z,24.21
2022-08-03T04:48:29.355Z,24.18
2022-08-03T04:50:55.971Z,24.30
2022-08-03T04:53:22.645Z,24.12
2022-08-03T04:55:49.822Z,24.23
2022-08-03T04:58:16.323Z,24.20
2022-08-03T05:00:43.209Z,23.98
2022-08-03T05:03:23.652Z,23.85
2022-08-03T05:06:01.658Z,23.83
2022-08-03T05:08:46.190Z,23.39
2022-08-03T05:11:15.214Z,23.47
2022-08-03T05:13:41.822Z,23.59
2022-08-03T05:16:08.400Z,23.66
2022-08-03T05:18:35.961Z,23.76
2022-08-03T05:21:02.738Z,23.93
2022-08-03T05:23:29.493Z,24.02
2022-08-03T05:25:56.090Z,23.95
2022-08-03T05:28:23.031Z,24.10
2022-08-03T05:30:49.585Z,24.10
2022-08-03T05:33:16.112Z,24.07
2022-08-03T05:35:57.366Z,24.14
2022-08-03T05:38:34.399Z,24.40
2022-08-03T05:41:21.325Z,24.57
2022-08-03T05:43:49.765Z,24.76
2022-08-03T05:46:16.339Z,24.88
2022-08-03T05:48:43.020Z,24.95
2022-08-03T05:51:11.685Z,25.16
2022-08-03T05:53:39.656Z,25.74
2022-08-03T05:56:13.746Z,25.72
2022-08-03T05:58:43.896Z,25.83
2022-08-03T06:01:10.497Z,25.92
2022-08-03T06:03:37.049Z,26.51
2022-08-03T06:06:03.686Z,27.21
2022-08-03T06:08:30.345Z,28.05
2022-08-03T06:10:56.878Z,28.29
2022-08-03T06:13:23.404Z,29.86
2022-08-03T06:15:49.954Z,31.23
2022-08-03T06:18:16.465Z,32.00
2022-08-03T06:20:43.338Z,31.67
2022-08-03T06:23:16.199Z,30.47
2022-08-03T06:25:44.598Z,29.63
2022-08-03T06:28:35.329Z,29.92
2022-08-03T06:30:59.033Z,30.10
2022-08-03T06:33:26.532Z,30.67
2022-08-03T06:36:13.066Z,30.90
2022-08-03T06:38:39.607Z,30.90
2022-08-03T06:41:06.135Z,31.86
2022-08-03T06:43:35.994Z,31.14
2022-08-03T06:46:02.674Z,30.72
2022-08-03T06:48:29.192Z,31.66
2022-08-03T06:50:55.740Z,31.07
2022-08-03T06:53:22.630Z,31.80
2022-08-03T06:55:54.187Z,31.79
2022-08-03T06:58:21.288Z,31.91
2022-08-03T07:00:48.075Z,30.58
2022-08-03T07:03:15.138Z,30.65
2022-08-03T07:05:43.547Z,30.93
2022-08-03T07:08:10.276Z,31.62
2022-08-03T07:10:37.200Z,31.79
2022-08-03T07:13:04.834Z,31.42
2022-08-03T07:15:54.600Z,31.41
2022-08-03T07:18:29.087Z,31.62
2022-08-03T07:20:57.528Z,31.57
2022-08-03T07:23:24.196Z,31.03
2022-08-03T07:25:50.957Z,31.48
2022-08-03T07:28:17.767Z,31.51
2022-08-03T07:30:44.408Z,31.82
2022-08-03T07:33:11.145Z,31.73
2022-08-03T07:35:37.791Z,31.94
2022-08-03T07:38:04.305Z,32.37
2022-08-03T07:40:31.880Z,31.86
2022-08-03T07:42:59.836Z,31.60
2022-08-03T07:45:26.910Z,32.32
2022-08-03T07:47:54.366Z,32.36
2022-08-03T07:50:21.777Z,32.69
2022-08-03T07:52:49.693Z,32.47
2022-08-03T07:55:17.844Z,33.05
2022-08-03T07:57:44.851Z,33.22
2022-08-03T08:00:19.227Z,33.19
2022-08-03T08:02:46.000Z,33.28
2022-08-03T08:05:13.115Z,33.17
2022-08-03T08:07:40.369Z,33.12
2022-08-03T08:10:09.991Z,33.25
2022-08-03T08:12:38.622Z,33.38
2022-08-03T08:15:05.944Z,32.94
2022-08-03T08:17:41.943Z,33.04
2022-08-03T08:20:09.488Z,33.32
2022-08-03T08:22:35.999Z,33.66
2022-08-03T08:25:04.409Z,33.00
2022-08-03T08:28:22.220Z,32.07
2022-08-03T08:30:20.179Z,33.36
2022-08-03T08:32:47.722Z,32.98
2022-08-03T08:35:14.748Z,32.63
2022-08-03T08:37:41.685Z,33.75
2022-08-03T08:40:09.415Z,33.74
2022-08-03T08:42:57.587Z,33.85
2022-08-03T08:45:25.259Z,33.59
2022-08-03T08:47:55.678Z,33.14
2022-08-03T08:50:27.690Z,34.01
2022-08-03T08:52:55.232Z,33.90
2022-08-03T08:55:23.388Z,34.08
2022-08-03T08:57:53.098Z,34.02
2022-08-03T09:00:19.670Z,34.41
2022-08-03T09:02:46.983Z,34.57
2022-08-03T09:05:15.505Z,34.08
2022-08-03T09:07:43.401Z,34.38
2022-08-03T09:10:14.855Z,34.56
2022-08-03T09:12:47.102Z,34.59
2022-08-03T09:15:17.828Z,34.08
2022-08-03T09:17:47.660Z,34.45
2022-08-03T09:20:17.636Z,34.71
2022-08-03T09:23:19.139Z,34.52
2022-08-03T09:25:59.838Z,35.06
2022-08-03T09:28:56.556Z,34.92
2022-08-03T09:31:33.123Z,34.91
2022-08-03T09:34:05.090Z,35.08
2022-08-03T09:36:39.100Z,34.92
2022-08-03T09:39:11.887Z,34.56
2022-08-03T09:41:40.383Z,34.96
2022-08-03T09:44:08.326Z,35.19
2022-08-03T09:46:52.375Z,34.92
2022-08-03T09:49:19.054Z,34.21
2022-08-03T09:52:32.823Z,33.94
2022-08-03T09:54:32.812Z,34.79
2022-08-03T09:56:59.506Z,35.07
2022-08-03T09:59:28.716Z,34.78
2022-08-03T10:01:56.493Z,34.57
2022-08-03T10:04:23.889Z,34.44
2022-08-03T10:07:10.784Z,34.80
2022-08-03T10:09:38.178Z,34.51
2022-08-03T10:12:09.680Z,34.91
2022-08-03T10:14:38.789Z,34.26
2022-08-03T10:17:06.022Z,34.54
2022-08-03T10:19:33.713Z,34.84
2022-08-03T10:22:07.886Z,35.19
2022-08-03T10:24:36.233Z,34.48
2022-08-03T10:27:14.785Z,33.92
2022-08-03T10:29:45.943Z,34.31
2022-08-03T10:32:42.430Z,34.61
2022-08-03T10:35:21.019Z,34.82
2022-08-03T10:38:16.702Z,34.58
2022-08-03T10:40:49.343Z,34.51
2022-08-03T10:43:23.038Z,34.14
2022-08-03T10:45:50.437Z,34.33
2022-08-03T10:48:18.067Z,34.03
2022-08-03T10:50:45.366Z,33.59
2022-08-03T10:53:11.962Z,34.02
2022-08-03T10:56:02.261Z,34.02
2022-08-03T10:58:53.445Z,33.50
2022-08-03T11:01:59.839Z,33.87
2022-08-03T11:04:27.191Z,33.56
2022-08-03T11:07:16.128Z,33.34
2022-08-03T11:09:48.496Z,33.56
2022-08-03T11:12:32.765Z,33.15
2022-08-03T11:15:05.682Z,32.72
2022-08-03T11:17:33.962Z,33.38
2022-08-03T11:20:13.594Z,33.27
2022-08-03T11:23:01.009Z,33.46
2022-08-03T11:25:55.125Z,33.25
2022-08-03T11:28:31.466Z,33.47
2022-08-03T11:31:48.531Z,33.74
2022-08-03T11:34:14.064Z,33.73
2022-08-03T11:37:18.996Z,33.69
2022-08-03T11:39:47.541Z,33.63
2022-08-03T11:42:23.502Z,33.81
2022-08-03T11:44:51.032Z,33.80
2022-08-03T11:47:18.674Z,33.69
2022-08-03T11:49:51.082Z,33.55
2022-08-03T11:52:17.968Z,33.62
2022-08-03T11:54:44.981Z,33.51
2022-08-03T11:57:11.900Z,33.48
2022-08-03T11:59:38.747Z,33.82
2022-08-03T12:02:11.100Z,34.02
2022-08-03T12:05:10.008Z,33.75
2022-08-03T12:08:03.032Z,33.76
2022-08-03T12:10:33.433Z,33.80
2022-08-03T12:13:01.851Z,33.68
2022-08-03T12:15:30.199Z,33.33
2022-08-03T12:17:58.203Z,33.71
2022-08-03T12:20:34.828Z,33.73
2022-08-03T12:23:06.733Z,33.73
2022-08-03T12:25:39.265Z,33.74
2022-08-03T12:28:37.082Z,33.81
2022-08-03T12:31:09.597Z,33.81
2022-08-03T12:33:55.504Z,33.84
2022-08-03T12:36:22.167Z,33.82
2022-08-03T12:38:56.788Z,33.76
2022-08-03T12:41:52.808Z,33.50
2022-08-03T12:44:30.346Z,33.66
2022-08-03T12:47:01.110Z,33.83
2022-08-03T12:49:30.508Z,33.93
2022-08-03T12:52:04.083Z,33.79
2022-08-03T12:54:35.952Z,33.67
2022-08-03T12:57:05.520Z,33.49
2022-08-03T12:59:45.108Z,33.63
2022-08-03T13:02:24.748Z,33.68
2022-08-03T13:04:53.112Z,33.79
2022-08-03T13:07:21.129Z,33.54
2022-08-03T13:09:53.707Z,33.78
2022-08-03T13:12:25.466Z,33.71
2022-08-03T13:14:57.271Z,33.85
2022-08-03T13:17:24.295Z,33.95
2022-08-03T13:19:51.717Z,33.66
2022-08-03T13:22:24.869Z,33.94
2022-08-03T13:24:57.466Z,33.76
2022-08-03T13:28:03.388Z,33.53
2022-08-03T13:30:17.891Z,33.84
2022-08-03T13:32:58.625Z,33.69
2022-08-03T13:35:25.572Z,33.74
2022-08-03T13:37:52.137Z,33.73
2022-08-03T13:40:18.740Z,33.70
2022-08-03T13:42:50.262Z,33.60
2022-08-03T13:45:16.861Z,33.73
2022-08-03T13:47:43.343Z,33.86
2022-08-03T13:50:09.904Z,33.79
2022-08-03T13:52:37.755Z,33.83
2022-08-03T13:55:06.066Z,33.58
2022-08-03T13:58:03.905Z,33.85
2022-08-03T14:00:27.383Z,34.01
2022-08-03T14:03:06.464Z,33.73
2022-08-03T14:05:38.193Z,33.71
2022-08-03T14:08:06.844Z,33.75
2022-08-03T14:10:38.384Z,33.95
2022-08-03T14:13:05.999Z,33.93
2022-08-03T14:15:38.273Z,33.73
2022-08-03T14:18:06.879Z,33.73
2022-08-03T14:20:38.898Z,33.86
2022-08-03T14:23:15.707Z,34.05
2022-08-03T14:25:49.963Z,34.03
2022-08-03T14:28:18.587Z,33.85
2022-08-03T14:30:45.517Z,33.67
2022-08-03T14:33:12.022Z,33.64
2022-08-03T14:35:38.653Z,33.66
2022-08-03T14:38:05.199Z,33.76
2022-08-03T14:40:32.261Z,33.51
2022-08-03T14:42:58.911Z,34.09
2022-08-03T14:45:25.418Z,34.05
2022-08-03T14:50:31.856Z,34.26
2022-08-03T14:50:43.134Z,34.29
2022-08-03T14:53:12.164Z,34.06
2022-08-03T14:55:50.670Z,34.08
2022-08-03T14:58:20.933Z,34.10
2022-08-03T15:00:49.925Z,33.99
2022-08-03T15:03:17.613Z,34.06
2022-08-03T15:05:44.793Z,33.76
2022-08-03T15:08:11.340Z,33.92
2022-08-03T15:10:44.154Z,33.84
2022-08-03T15:13:13.125Z,34.17
2022-08-03T15:15:40.187Z,34.08
2022-08-03T15:18:06.992Z,34.14
2022-08-03T15:20:43.976Z,33.49
2022-08-03T15:23:12.606Z,33.53
2022-08-03T15:26:28.008Z,33.62
2022-08-03T15:28:25.770Z,33.89
2022-08-03T15:30:53.058Z,33.52
2022-08-03T15:33:20.155Z,33.85
2022-08-03T15:35:47.611Z,33.91
2022-08-03T15:38:14.296Z,33.84
2022-08-03T15:40:41.027Z,33.86
2022-08-03T15:43:07.675Z,33.72
2022-08-03T15:45:36.402Z,33.97
2022-08-03T15:48:06.928Z,34.04
2022-08-03T15:50:33.575Z,33.84
2022-08-03T15:53:00.180Z,33.84
2022-08-03T15:55:27.199Z,33.53
2022-08-03T15:59:03.690Z,33.66
2022-08-03T16:00:41.903Z,33.82
2022-08-03T16:03:09.069Z,34.08
2022-08-03T16:05:36.174Z,33.89
2022-08-03T16:08:05.050Z,33.99
2022-08-03T16:10:33.597Z,33.90
2022-08-03T16:13:00.447Z,33.99
2022-08-03T16:15:27.706Z,33.94
2022-08-03T16:17:54.354Z,34.15
2022-08-03T16:20:30.914Z,34.07
2022-08-03T16:23:10.470Z,34.30
2022-08-03T16:25:38.285Z,34.13
2022-08-03T16:28:07.788Z,34.31
2022-08-03T16:30:39.786Z,34.08
2022-08-03T16:33:06.288Z,34.14
2022-08-03T16:35:32.912Z,34.05
2022-08-03T16:37:59.551Z,34.14
2022-08-03T16:40:26.627Z,34.08
2022-08-03T16:42:53.329Z,33.90
2022-08-03T16:45:20.100Z,33.98
2022-08-03T16:47:46.643Z,34.05
2022-08-03T16:50:19.454Z,34.16
2022-08-03T16:52:48.344Z,33.89
2022-08-03T16:55:15.993Z,33.89
2022-08-03T16:58:02.994Z,33.58
2022-08-03T17:00:33.311Z,33.69
2022-08-03T17:03:04.404Z,33.83
2022-08-03T17:05:47.048Z,33.69
2022-08-03T17:08:14.170Z,33.61
2022-08-03T17:10:45.560Z,33.68
2022-08-03T17:13:22.056Z,33.77
2022-08-03T17:16:01.062Z,33.66
2022-08-03T17:18:34.055Z,33.53
2022-08-03T17:21:05.066Z,33.39
2022-08-03T17:23:37.407Z,33.46
2022-08-03T17:26:10.554Z,33.47
2022-08-03T17:28:51.806Z,33.51
2022-08-03T17:31:30.807Z,33.47
2022-08-03T17:34:04.530Z,33.27
2022-08-03T17:37:02.163Z,33.23
2022-08-03T17:39:35.771Z,33.13
2022-08-03T17:42:31.267Z,33.10
2022-08-03T17:44:57.551Z,33.28
2022-08-03T17:47:29.346Z,33.04
2022-08-03T17:50:23.344Z,33.11
2022-08-03T17:52:58.327Z,33.08
2022-08-03T17:55:54.916Z,32.98
2022-08-03T17:58:25.350Z,32.95
2022-08-03T18:01:59.226Z,32.90
2022-08-03T18:04:10.803Z,33.02
2022-08-03T18:06:56.161Z,32.91
2022-08-03T18:10:03.526Z,32.94
2022-08-03T18:12:25.068Z,32.85
2022-08-03T18:15:01.444Z,32.66
2022-08-03T18:17:58.174Z,32.62
2022-08-03T18:20:32.306Z,32.60
2022-08-03T18:23:04.826Z,32.58
2022-08-03T18:25:44.917Z,32.56
2022-08-03T18:28:18.636Z,32.46
2022-08-03T18:30:53.451Z,32.39
2022-08-03T18:34:17.195Z,32.47
2022-08-03T18:36:21.685Z,32.19
2022-08-03T18:38:51.801Z,32.15
2022-08-03T18:41:32.293Z,32.10
2022-08-03T18:44:07.982Z,31.98
2022-08-03T18:46:41.009Z,32.05
2022-08-03T18:49:18.783Z,32.14
2022-08-03T18:51:46.648Z,31.97
2022-08-03T18:54:45.882Z,31.82
2022-08-03T18:57:30.432Z,31.70
2022-08-03T19:00:42.426Z,31.74
2022-08-03T19:03:20.253Z,31.60
2022-08-03T19:06:03.019Z,31.68
2022-08-03T19:08:49.730Z,31.53
2022-08-03T19:12:13.982Z,31.52
2022-08-03T19:14:28.776Z,31.32
2022-08-03T19:17:08.651Z,31.26
2022-08-03T19:19:44.453Z,31.24
2022-08-03T19:22:15.893Z,31.27
2022-08-03T19:24:45.900Z,31.19
2022-08-03T19:27:13.596Z,31.17
2022-08-03T19:29:57.993Z,31.13
2022-08-03T19:32:31.844Z,31.16
2022-08-03T19:34:59.723Z,31.06
2022-08-03T19:37:38.006Z,30.99
2022-08-03T19:40:12.398Z,31.08
2022-08-03T19:42:44.184Z,31.07
2022-08-03T19:45:15.527Z,30.81
2022-08-03T19:47:52.958Z,30.81
2022-08-03T19:50:20.536Z,30.71
2022-08-03T19:52:48.549Z,30.70
2022-08-03T19:55:17.568Z,30.78
2022-08-03T19:57:49.270Z,30.75
2022-08-03T20:00:19.536Z,30.70
2022-08-03T20:02:46.499Z,30.63
2022-08-03T20:05:15.296Z,30.95
2022-08-03T20:07:47.496Z,30.99
2022-08-03T20:10:15.984Z,30.49
2022-08-03T20:12:44.488Z,30.41
2022-08-03T20:15:12.004Z,30.31
2022-08-03T20:17:54.498Z,30.39
2022-08-03T20:20:25.891Z,30.20
2022-08-03T20:22:57.586Z,30.22
2022-08-03T20:25:38.681Z,30.22
2022-08-03T20:28:33.331Z,30.04
2022-08-03T20:31:01.755Z,30.12
2022-08-03T20:36:17.869Z,30.09
2022-08-03T20:38:47.398Z,30.01
2022-08-03T20:41:15.740Z,30.01
2022-08-03T20:43:42.518Z,29.99
2022-08-03T20:46:29.535Z,30.04
2022-08-03T20:48:59.584Z,29.96
2022-08-03T20:51:50.263Z,29.90
2022-08-03T20:54:22.783Z,29.86
2022-08-03T20:56:58.450Z,29.84
2022-08-03T20:59:36.578Z,29.85
2022-08-03T21:02:19.585Z,29.97
2022-08-03T21:04:55.951Z,29.95
2022-08-03T21:07:24.276Z,29.85
2022-08-03T21:09:55.679Z,29.80
2022-08-03T21:12:33.066Z,29.73
2022-08-03T21:13:07.169Z,30.08
2022-08-03T21:15:04.018Z,29.64
2022-08-03T21:17:40.639Z,29.59
2022-08-03T21:20:10.217Z,29.59
2022-08-03T21:22:43.721Z,29.62
2022-08-03T21:25:13.548Z,29.59
2022-08-03T21:27:40.715Z,29.51
2022-08-03T21:30:10.290Z,29.29
2022-08-03T21:32:40.350Z,29.41
2022-08-03T21:35:11.295Z,29.25
2022-08-03T21:37:39.789Z,29.35
2022-08-03T21:40:08.417Z,29.46
2022-08-03T21:42:34.981Z,29.40
2022-08-03T21:45:06.066Z,29.08
2022-08-03T21:47:37.038Z,29.09
2022-08-03T21:50:09.837Z,29.12
2022-08-03T21:52:42.435Z,28.79
2022-08-03T21:55:18.354Z,28.95
2022-08-03T21:57:52.842Z,28.79
2022-08-03T22:00:21.602Z,28.82
2022-08-03T22:02:54.448Z,28.50
2022-08-03T22:05:28.131Z,28.47
2022-08-03T22:08:09.735Z,28.34
2022-08-03T22:10:36.876Z,28.26
2022-08-03T22:13:03.502Z,28.07
2022-08-03T22:15:30.984Z,27.85
2022-08-03T22:17:59.063Z,27.94
2022-08-03T22:20:25.843Z,28.00
2022-08-03T22:23:01.627Z,27.98
2022-08-03T22:25:31.108Z,27.93
2022-08-03T22:28:02.926Z,27.71
2022-08-03T22:30:29.898Z,27.95
2022-08-03T22:32:57.908Z,27.67
2022-08-03T22:35:26.239Z,27.58
2022-08-03T22:37:55.175Z,27.54
2022-08-03T22:40:22.182Z,27.50
2022-08-03T22:42:52.645Z,27.40
2022-08-03T22:46:06.980Z,27.41
2022-08-03T22:48:08.006Z,27.34
2022-08-03T22:50:34.915Z,27.48
2022-08-03T22:53:01.643Z,27.51
2022-08-03T22:55:28.332Z,27.68
2022-08-03T22:57:55.995Z,27.49
2022-08-03T23:00:23.449Z,27.49
2022-08-03T23:02:51.772Z,27.68
2022-08-03T23:06:01.826Z,27.83
2022-08-03T23:08:14.684Z,27.88
2022-08-03T23:10:46.788Z,27.65
2022-08-03T23:13:16.427Z,27.66
2022-08-03T23:15:47.491Z,27.34
2022-08-03T23:18:15.162Z,27.62
2022-08-03T23:20:42.526Z,27.65
2022-08-03T23:23:11.299Z,27.53
2022-08-03T23:25:41.474Z,27.23
2022-08-03T23:28:09.092Z,27.30
2022-08-03T23:30:37.343Z,27.73
2022-08-03T23:33:04.334Z,27.74
2022-08-03T23:36:28.660Z,27.65
2022-08-03T23:38:37.189Z,27.54
2022-08-03T23:41:04.851Z,27.47
2022-08-03T23:43:47.656Z,27.38
2022-08-03T23:46:20.726Z,27.33
2022-08-03T23:48:47.228Z,27.33
2022-08-03T23:51:29.556Z,27.34
2022-08-03T23:54:06.549Z,27.32
2022-08-03T23:56:43.544Z,27.21
2022-08-03T23:59:48.641Z,27.16
